createdAt,value
2022-12-05T00:00:19.347Z,24.75
2022-12-05T00:00:51.197Z,24.52
2022-12-05T00:01:25.650Z,28.65
2022-12-05T00:01:57.122Z,26.23
2022-12-05T00:02:28.663Z,27.25
2022-12-05T00:03:04.059Z,28.75
2022-12-05T00:03:35.497Z,25.60
2022-12-05T00:04:08.419Z,25.92
2022-12-05T00:04:39.946Z,27.73
2022-12-05T00:05:12.127Z,25.55
2022-12-05T00:05:43.539Z,26.40
2022-12-05T00:06:15.208Z,27.57
2022-12-05T00:06:46.584Z,28.55
2022-12-05T00:07:17.973Z,25.98
2022-12-05T00:07:49.424Z,27.95
2022-12-05T00:08:20.849Z,25.60
2022-12-05T00:08:52.682Z,29.60
2022-12-05T00:09:24.077Z,26.85
2022-12-05T00:09:55.710Z,27.70
2022-12-05T00:10:27.303Z,24.98
2022-12-05T00:10:58.686Z,29.83
2022-12-05T00:11:31.307Z,27.25
2022-12-05T00:12:02.738Z,27.23
2022-12-05T00:12:34.145Z,28.13
2022-12-05T00:13:05.917Z,28.88
2022-12-05T00:13:37.309Z,29.35
2022-12-05T00:14:09.312Z,27.83
2022-12-05T00:14:40.695Z,29.85
2022-12-05T00:15:12.132Z,26.60
2022-12-05T00:15:43.518Z,26.88
2022-12-05T00:16:17.781Z,29.15
2022-12-05T00:16:49.271Z,26.38
2022-12-05T00:17:20.747Z,27.73
2022-12-05T00:17:52.136Z,24.02
2022-12-05T00:18:23.519Z,27.60
2022-12-05T00:18:55.224Z,25.48
2022-12-05T00:19:26.624Z,25.45
2022-12-05T00:19:58.644Z,25.20
2022-12-05T00:20:30.240Z,27.25
2022-12-05T00:21:01.680Z,28.80
2022-12-05T00:21:33.984Z,25.52
2022-12-05T00:22:05.406Z,23.05
2022-12-05T00:22:37.897Z,26.85
2022-12-05T00:23:09.273Z,25.17
2022-12-05T00:23:40.810Z,24.17
2022-12-05T00:24:14.104Z,26.17
2022-12-05T00:24:45.529Z,23.42
2022-12-05T00:25:17.020Z,23.70
2022-12-05T00:25:48.414Z,23.93
2022-12-05T00:26:20.356Z,24.15
2022-12-05T00:26:51.903Z,23.77
2022-12-05T00:27:23.327Z,25.02
2022-12-05T00:27:54.723Z,25.88
2022-12-05T00:28:26.067Z,23.52
2022-12-05T00:28:58.074Z,23.17
2022-12-05T00:29:29.490Z,25.73
2022-12-05T00:30:00.976Z,25.33
2022-12-05T00:30:32.620Z,26.63
2022-12-05T00:31:04.982Z,23.50
2022-12-05T00:31:36.494Z,25.30
2022-12-05T00:32:08.009Z,25.52
2022-12-05T00:32:39.490Z,27.10
2022-12-05T00:33:10.900Z,23.95
2022-12-05T00:33:42.661Z,24.77
2022-12-05T00:34:14.072Z,26.55
2022-12-05T00:34:45.503Z,24.33
2022-12-05T00:35:16.940Z,25.33
2022-12-05T00:35:48.270Z,27.20
2022-12-05T00:36:24.067Z,25.67
2022-12-05T00:36:55.450Z,27.10
2022-12-05T00:37:26.891Z,26.17
2022-12-05T00:37:58.222Z,26.02
2022-12-05T00:38:29.615Z,28.73
2022-12-05T00:39:02.085Z,26.25
2022-12-05T00:39:33.455Z,25.20
2022-12-05T00:40:05.210Z,24.15
2022-12-05T00:40:36.707Z,28.20
2022-12-05T00:41:12.780Z,25.98
2022-12-05T00:41:44.157Z,26.70
2022-12-05T00:42:15.519Z,25.35
2022-12-05T00:42:52.044Z,24.30
2022-12-05T00:43:23.707Z,24.58
2022-12-05T00:43:55.349Z,26.42
2022-12-05T00:44:26.731Z,26.05
2022-12-05T00:44:58.104Z,25.88
2022-12-05T00:45:29.450Z,26.27
2022-12-05T00:46:08.028Z,26.90
2022-12-05T00:46:39.613Z,23.67
2022-12-05T00:47:10.983Z,26.23
2022-12-05T00:47:42.427Z,23.73
2022-12-05T00:48:13.763Z,29.00
2022-12-05T00:48:45.141Z,26.70
2022-12-05T00:49:16.531Z,24.10
2022-12-05T00:49:47.869Z,27.40
2022-12-05T00:50:19.411Z,25.48
2022-12-05T00:50:50.780Z,25.17
2022-12-05T00:51:26.559Z,24.02
2022-12-05T00:51:57.961Z,25.30
2022-12-05T00:52:29.350Z,24.17
2022-12-05T00:53:00.765Z,23.85
2022-12-05T00:53:32.289Z,25.15
2022-12-05T00:54:04.941Z,25.85
2022-12-05T00:54:36.328Z,23.40
2022-12-05T00:55:07.884Z,24.13
2022-12-05T00:55:39.331Z,23.65
2022-12-05T00:56:12.280Z,24.93
2022-12-05T00:56:44.336Z,26.05
2022-12-05T00:57:15.713Z,25.17
2022-12-05T00:57:47.067Z,22.08
2022-12-05T00:58:18.426Z,23.65
2022-12-05T00:58:50.584Z,24.10
2022-12-05T00:59:22.125Z,22.45
2022-12-05T00:59:53.477Z,24.05
2022-12-05T01:00:24.851Z,26.13
2022-12-05T01:00:56.439Z,24.38
2022-12-05T01:01:29.700Z,27.75
2022-12-05T01:02:01.157Z,24.48
2022-12-05T01:02:32.549Z,25.20
2022-12-05T01:03:03.942Z,23.48
2022-12-05T01:03:35.512Z,23.42
2022-12-05T01:04:08.201Z,23.38
2022-12-05T01:04:39.579Z,24.75
2022-12-05T01:05:11.114Z,24.33
2022-12-05T01:05:42.486Z,23.30
2022-12-05T01:06:14.945Z,24.05
2022-12-05T01:06:46.406Z,23.40
2022-12-05T01:07:17.784Z,23.17
2022-12-05T01:07:49.288Z,22.08
2022-12-05T01:08:20.833Z,22.85
2022-12-05T01:08:53.066Z,23.90
2022-12-05T01:09:24.633Z,26.77
2022-12-05T01:09:56.405Z,23.67
2022-12-05T01:10:27.960Z,24.67
2022-12-05T01:10:59.639Z,20.50
2022-12-05T01:11:33.111Z,19.83
2022-12-05T01:12:07.850Z,24.37
2022-12-05T01:12:39.226Z,24.33
2022-12-05T01:13:10.601Z,20.83
2022-12-05T01:13:42.305Z,25.23
2022-12-05T01:14:14.916Z,21.40
2022-12-05T01:14:46.353Z,22.38
2022-12-05T01:15:17.791Z,22.98
2022-12-05T01:15:49.790Z,21.63
2022-12-05T01:16:26.472Z,23.35
2022-12-05T01:16:58.087Z,24.52
2022-12-05T01:17:29.504Z,25.50
2022-12-05T01:18:00.870Z,25.90
2022-12-05T01:18:32.656Z,26.48
2022-12-05T01:19:15.162Z,21.88
2022-12-05T01:19:46.552Z,22.90
2022-12-05T01:20:18.034Z,22.35
2022-12-05T01:20:49.977Z,19.80
2022-12-05T01:21:21.734Z,25.13
2022-12-05T01:21:53.537Z,26.33
2022-12-05T01:22:24.914Z,24.38
2022-12-05T01:22:56.286Z,22.65
2022-12-05T01:23:27.735Z,21.77
2022-12-05T01:23:59.117Z,23.63
2022-12-05T01:24:30.501Z,22.83
2022-12-05T01:25:01.896Z,21.95
2022-12-05T01:25:33.536Z,20.40
2022-12-05T01:26:06.463Z,22.52
2022-12-05T01:26:38.312Z,22.83
2022-12-05T01:27:09.796Z,22.85
2022-12-05T01:27:41.183Z,23.45
2022-12-05T01:28:12.941Z,20.33
2022-12-05T01:28:44.861Z,23.25
2022-12-05T01:29:17.600Z,22.77
2022-12-05T01:29:49.077Z,22.73
2022-12-05T01:30:20.523Z,24.35
2022-12-05T01:30:52.019Z,23.55
2022-12-05T01:31:30.883Z,25.63
2022-12-05T01:32:02.311Z,23.20
2022-12-05T01:32:33.793Z,23.73
2022-12-05T01:33:05.521Z,22.88
2022-12-05T01:33:36.931Z,24.15
2022-12-05T01:34:10.255Z,24.97
2022-12-05T01:34:41.630Z,20.55
2022-12-05T01:35:13.042Z,24.23
2022-12-05T01:35:44.713Z,22.63
2022-12-05T01:36:16.159Z,23.85
2022-12-05T01:36:47.903Z,23.08
2022-12-05T01:37:19.284Z,24.10
2022-12-05T01:37:51.647Z,23.23
2022-12-05T01:38:23.075Z,21.30
2022-12-05T01:38:54.825Z,22.40
2022-12-05T01:39:26.218Z,25.00
2022-12-05T01:39:57.739Z,23.40
2022-12-05T01:40:29.399Z,22.05
2022-12-05T01:41:02.163Z,21.85
2022-12-05T01:41:34.884Z,23.37
2022-12-05T01:42:06.264Z,22.58
2022-12-05T01:42:38.826Z,22.17
2022-12-05T01:43:13.865Z,22.23
2022-12-05T01:44:00.257Z,23.13
2022-12-05T01:44:31.652Z,22.70
2022-12-05T01:45:14.699Z,19.60
2022-12-05T01:45:46.436Z,23.83
2022-12-05T01:46:17.996Z,22.52
2022-12-05T01:46:50.694Z,23.75
2022-12-05T01:47:23.754Z,21.30
2022-12-05T01:47:55.251Z,23.63
2022-12-05T01:48:35.291Z,23.83
2022-12-05T01:49:12.142Z,22.63
2022-12-05T01:49:43.848Z,21.40
2022-12-05T01:50:15.284Z,22.10
2022-12-05T01:50:47.508Z,20.85
2022-12-05T01:51:18.928Z,21.88
2022-12-05T01:51:52.558Z,22.60
2022-12-05T01:52:25.452Z,22.00
2022-12-05T01:52:56.828Z,21.55
2022-12-05T01:53:28.583Z,22.88
2022-12-05T01:54:00.821Z,20.52
2022-12-05T01:54:32.619Z,21.67
2022-12-05T01:55:08.833Z,20.45
2022-12-05T01:55:40.254Z,23.25
2022-12-05T01:56:12.154Z,23.13
2022-12-05T01:56:45.189Z,23.00
2022-12-05T01:57:16.618Z,21.88
2022-12-05T01:57:48.769Z,22.17
2022-12-05T01:58:20.211Z,25.13
2022-12-05T01:58:52.267Z,23.48
2022-12-05T01:59:24.824Z,21.52
2022-12-05T02:00:00.628Z,22.05
2022-12-05T02:00:32.456Z,23.75
2022-12-05T02:01:04.313Z,22.45
2022-12-05T02:01:35.871Z,21.40
2022-12-05T02:02:08.106Z,21.80
2022-12-05T02:02:46.828Z,21.17
2022-12-05T02:03:19.177Z,23.05
2022-12-05T02:03:54.093Z,22.08
2022-12-05T02:04:25.713Z,21.85
2022-12-05T02:04:57.047Z,22.45
2022-12-05T02:05:29.799Z,22.45
2022-12-05T02:06:01.682Z,22.23
2022-12-05T02:06:33.229Z,25.40
2022-12-05T02:07:04.710Z,21.27
2022-12-05T02:07:38.256Z,22.83
2022-12-05T02:08:12.770Z,24.60
2022-12-05T02:08:44.752Z,23.60
2022-12-05T02:09:16.198Z,23.38
2022-12-05T02:09:49.522Z,20.35
2022-12-05T02:10:20.958Z,23.67
2022-12-05T02:10:53.186Z,22.60
2022-12-05T02:11:26.911Z,21.45
2022-12-05T02:11:59.814Z,22.40
2022-12-05T02:12:31.363Z,21.48
2022-12-05T02:13:29.009Z,23.42
2022-12-05T02:14:24.420Z,21.40
2022-12-05T02:15:04.986Z,21.58
2022-12-05T02:16:11.751Z,20.90
2022-12-05T02:16:43.220Z,21.77
2022-12-05T02:17:19.630Z,23.48
2022-12-05T02:18:14.105Z,21.45
2022-12-05T02:18:54.096Z,22.55
2022-12-05T02:19:28.402Z,20.00
2022-12-05T02:20:06.920Z,20.45
2022-12-05T02:20:41.246Z,22.98
2022-12-05T02:21:30.569Z,23.20
2022-12-05T02:22:20.640Z,22.35
2022-12-05T02:23:07.436Z,24.33
2022-12-05T02:23:48.966Z,23.43
2022-12-05T02:24:40.675Z,23.90
2022-12-05T02:25:12.108Z,26.65
2022-12-05T02:25:46.217Z,25.42
2022-12-05T02:26:29.574Z,22.50
2022-12-05T02:27:12.866Z,22.27
2022-12-05T02:27:50.466Z,20.65
2022-12-05T02:28:44.391Z,22.77
2022-12-05T02:29:18.538Z,22.40
2022-12-05T02:29:56.869Z,22.83
2022-12-05T02:30:33.356Z,23.45
2022-12-05T02:31:10.561Z,22.08
2022-12-05T02:31:45.143Z,24.60
2022-12-05T02:32:20.761Z,26.23
2022-12-05T02:33:10.728Z,24.67
2022-12-05T02:33:48.305Z,25.85
2022-12-05T02:34:19.658Z,21.30
2022-12-05T02:34:50.971Z,21.17
2022-12-05T02:35:25.499Z,22.67
2022-12-05T02:36:07.305Z,25.13
2022-12-05T02:36:52.689Z,23.23
2022-12-05T02:37:30.120Z,22.83
2022-12-05T02:38:01.483Z,24.17
2022-12-05T02:38:40.976Z,23.75
2022-12-05T02:39:15.546Z,23.17
2022-12-05T02:39:56.792Z,21.65
2022-12-05T02:40:34.294Z,22.65
2022-12-05T02:41:05.681Z,21.45
2022-12-05T02:41:41.307Z,22.13
2022-12-05T02:42:12.645Z,23.38
2022-12-05T02:42:54.984Z,21.92
2022-12-05T02:43:31.181Z,22.90
2022-12-05T02:44:18.560Z,22.13
2022-12-05T02:45:16.065Z,22.15
2022-12-05T02:45:49.570Z,21.45
2022-12-05T02:46:22.659Z,22.08
2022-12-05T02:46:54.148Z,25.13
2022-12-05T02:47:27.220Z,21.30
2022-12-05T02:47:58.862Z,21.40
2022-12-05T02:48:31.121Z,25.27
2022-12-05T02:49:04.300Z,23.15
2022-12-05T02:49:36.820Z,22.52
2022-12-05T02:50:10.040Z,23.13
2022-12-05T02:50:42.679Z,21.83
2022-12-05T02:51:17.161Z,20.13
2022-12-05T02:51:50.288Z,23.08
2022-12-05T02:52:22.881Z,21.52
2022-12-05T02:52:56.492Z,21.90
2022-12-05T02:53:28.493Z,22.15
2022-12-05T02:54:02.241Z,21.08
2022-12-05T02:54:35.666Z,20.40
2022-12-05T02:55:08.339Z,22.23
2022-12-05T02:55:43.612Z,23.08
2022-12-05T02:56:15.099Z,21.52
2022-12-05T02:56:47.161Z,21.53
2022-12-05T02:57:19.049Z,21.77
2022-12-05T02:57:55.523Z,22.55
2022-12-05T02:58:34.932Z,21.50
2022-12-05T02:59:06.317Z,22.13
2022-12-05T02:59:37.756Z,22.48
2022-12-05T03:00:09.441Z,19.55
2022-12-05T03:00:42.777Z,21.80
2022-12-05T03:01:14.807Z,22.52
2022-12-05T03:01:46.765Z,20.40
2022-12-05T03:02:26.450Z,21.35
2022-12-05T03:02:59.385Z,19.75
2022-12-05T03:03:30.971Z,22.13
2022-12-05T03:04:03.592Z,20.20
2022-12-05T03:04:35.327Z,21.77
2022-12-05T03:05:09.841Z,19.05
2022-12-05T03:05:46.191Z,20.38
2022-12-05T03:06:27.153Z,18.63
2022-12-05T03:07:07.139Z,18.98
2022-12-05T03:07:38.723Z,19.15
2022-12-05T03:08:13.762Z,20.02
2022-12-05T03:08:47.862Z,20.75
2022-12-05T03:09:24.976Z,20.20
2022-12-05T03:09:58.748Z,17.42
2022-12-05T03:10:31.799Z,18.60
2022-12-05T03:11:03.691Z,20.42
2022-12-05T03:11:38.568Z,19.17
2022-12-05T03:12:14.177Z,18.58
2022-12-05T03:12:49.114Z,19.45
2022-12-05T03:13:33.717Z,19.85
2022-12-05T03:14:06.942Z,21.20
2022-12-05T03:14:42.064Z,16.23
2022-12-05T03:15:17.413Z,20.23
2022-12-05T03:15:50.002Z,21.75
2022-12-05T03:16:29.293Z,21.63
2022-12-05T03:17:06.582Z,20.90
2022-12-05T03:17:43.060Z,18.48
2022-12-05T03:18:17.312Z,19.35
2022-12-05T03:18:55.198Z,19.00
2022-12-05T03:19:30.110Z,18.83
2022-12-05T03:20:04.202Z,19.03
2022-12-05T03:20:42.256Z,20.67
2022-12-05T03:21:19.693Z,21.23
2022-12-05T03:22:01.871Z,19.55
2022-12-05T03:22:33.234Z,20.15
2022-12-05T03:23:23.442Z,17.98
2022-12-05T03:24:02.658Z,20.52
2022-12-05T03:24:36.251Z,22.02
2022-12-05T03:25:08.807Z,20.00
2022-12-05T03:25:49.889Z,19.60
2022-12-05T03:26:39.753Z,20.50
2022-12-05T03:27:19.990Z,18.75
2022-12-05T03:28:02.851Z,18.67
2022-12-05T03:28:34.190Z,18.02
2022-12-05T03:29:14.633Z,22.10
2022-12-05T03:29:46.004Z,21.08
2022-12-05T03:30:18.646Z,19.50
2022-12-05T03:30:52.888Z,20.75
2022-12-05T03:31:45.318Z,20.73
2022-12-05T03:32:16.696Z,22.63
2022-12-05T03:33:00.162Z,19.08
2022-12-05T03:33:36.007Z,20.25
2022-12-05T03:34:08.260Z,18.23
2022-12-05T03:35:09.138Z,20.08
2022-12-05T03:35:44.470Z,20.02
2022-12-05T03:36:18.878Z,20.15
2022-12-05T03:36:52.777Z,18.35
2022-12-05T03:37:30.149Z,18.47
2022-12-05T03:38:08.139Z,21.13
2022-12-05T03:38:42.645Z,19.92
2022-12-05T03:39:23.301Z,19.15
2022-12-05T03:40:01.034Z,17.27
2022-12-05T03:40:34.945Z,18.75
2022-12-05T03:41:25.101Z,18.77
2022-12-05T03:42:13.285Z,17.85
2022-12-05T03:42:49.501Z,21.65
2022-12-05T03:43:59.325Z,19.52
2022-12-05T03:44:53.670Z,19.27
2022-12-05T03:45:31.916Z,19.05
2022-12-05T03:46:06.549Z,18.85
2022-12-05T03:46:40.916Z,21.05
2022-12-05T03:47:15.321Z,20.08
2022-12-05T03:47:55.531Z,18.13
2022-12-05T03:48:36.174Z,17.38
2022-12-05T03:49:12.789Z,19.80
2022-12-05T03:49:51.699Z,17.05
2022-12-05T03:50:27.112Z,17.40
2022-12-05T03:50:59.371Z,17.42
2022-12-05T03:51:46.754Z,20.63
2022-12-05T03:52:22.798Z,18.23
2022-12-05T03:53:19.158Z,16.92
2022-12-05T03:53:51.405Z,17.55
2022-12-05T03:54:43.890Z,19.95
2022-12-05T03:55:15.994Z,17.85
2022-12-05T03:55:50.812Z,14.60
2022-12-05T03:56:25.166Z,19.10
2022-12-05T03:57:03.564Z,15.43
2022-12-05T03:57:40.582Z,16.10
2022-12-05T03:58:17.704Z,18.77
2022-12-05T03:59:07.728Z,17.17
2022-12-05T03:59:42.072Z,19.20
2022-12-05T04:00:21.015Z,17.13
2022-12-05T04:00:53.714Z,18.75
2022-12-05T04:01:27.145Z,16.70
2022-12-05T04:02:00.073Z,18.50
2022-12-05T04:02:42.972Z,17.13
2022-12-05T04:03:16.924Z,17.17
2022-12-05T04:03:55.380Z,16.73
2022-12-05T04:04:29.322Z,15.93
2022-12-05T04:05:20.886Z,15.82
2022-12-05T04:05:56.421Z,16.63
2022-12-05T04:06:30.524Z,15.93
2022-12-05T04:07:04.366Z,16.55
2022-12-05T04:07:37.533Z,15.15
2022-12-05T04:08:36.622Z,13.88
2022-12-05T04:09:25.982Z,15.43
2022-12-05T04:10:00.358Z,14.25
2022-12-05T04:10:33.770Z,17.55
2022-12-05T04:11:07.775Z,14.57
2022-12-05T04:11:41.153Z,14.75
2022-12-05T04:12:17.258Z,14.98
2022-12-05T04:12:49.409Z,14.00
2022-12-05T04:13:41.849Z,15.98
2022-12-05T04:14:14.908Z,14.45
2022-12-05T04:14:52.229Z,14.75
2022-12-05T04:15:26.386Z,15.70
2022-12-05T04:16:10.006Z,14.07
2022-12-05T04:16:43.137Z,14.97
2022-12-05T04:17:17.507Z,14.98
2022-12-05T04:18:07.466Z,14.73
2022-12-05T04:18:41.342Z,14.60
2022-12-05T04:19:21.803Z,13.77
2022-12-05T04:19:55.410Z,12.25
2022-12-05T04:20:39.088Z,16.77
2022-12-05T04:21:11.015Z,14.35
2022-12-05T04:21:44.499Z,13.90
2022-12-05T04:22:15.938Z,16.30
2022-12-05T04:22:47.527Z,17.33
2022-12-05T04:23:19.219Z,14.65
2022-12-05T04:23:50.755Z,15.10
2022-12-05T04:24:22.239Z,16.33
2022-12-05T04:24:55.627Z,14.05
2022-12-05T04:25:29.679Z,16.30
2022-12-05T04:26:22.832Z,13.90
2022-12-05T04:26:58.545Z,15.75
2022-12-05T04:27:33.016Z,14.95
2022-12-05T04:28:23.055Z,14.07
2022-12-05T04:29:07.315Z,14.90
2022-12-05T04:29:48.428Z,13.55
2022-12-05T04:30:21.901Z,13.90
2022-12-05T04:30:53.317Z,16.25
2022-12-05T04:31:26.277Z,16.02
2022-12-05T04:31:59.365Z,14.63
2022-12-05T04:32:36.180Z,14.30
2022-12-05T04:33:12.194Z,13.73
2022-12-05T04:33:50.216Z,14.98
2022-12-05T04:34:21.963Z,13.98
2022-12-05T04:34:57.221Z,14.60
2022-12-05T04:35:40.605Z,15.83
2022-12-05T04:36:12.014Z,16.03
2022-12-05T04:36:49.474Z,14.43
2022-12-05T04:37:22.545Z,15.70
2022-12-05T04:37:55.926Z,18.55
2022-12-05T04:38:30.230Z,18.30
2022-12-05T04:39:04.433Z,15.80
2022-12-05T04:39:48.496Z,15.57
2022-12-05T04:40:21.907Z,12.98
2022-12-05T04:40:57.083Z,19.88
2022-12-05T04:41:37.170Z,16.70
2022-12-05T04:42:10.492Z,14.23
2022-12-05T04:42:42.533Z,14.40
2022-12-05T04:43:15.024Z,13.15
2022-12-05T04:43:47.480Z,13.50
2022-12-05T04:44:20.702Z,14.35
2022-12-05T04:44:53.624Z,14.32
2022-12-05T04:45:25.765Z,14.23
2022-12-05T04:45:58.355Z,14.43
2022-12-05T04:46:29.929Z,16.35
2022-12-05T04:47:02.911Z,13.65
2022-12-05T04:47:37.213Z,14.10
2022-12-05T04:48:11.555Z,14.75
2022-12-05T04:48:44.686Z,12.77
2022-12-05T04:49:19.258Z,14.90
2022-12-05T04:49:54.376Z,13.07
2022-12-05T04:50:30.505Z,16.00
2022-12-05T04:51:02.670Z,14.40
2022-12-05T04:51:35.039Z,16.25
2022-12-05T04:52:10.571Z,14.77
2022-12-05T04:52:42.530Z,12.63
2022-12-05T04:53:14.931Z,13.55
2022-12-05T04:53:48.159Z,15.50
2022-12-05T04:54:42.875Z,15.40
2022-12-05T04:55:16.777Z,13.82
2022-12-05T04:55:50.683Z,14.30
2022-12-05T04:56:24.186Z,14.85
2022-12-05T04:57:01.131Z,14.68
2022-12-05T04:57:40.101Z,14.35
2022-12-05T04:58:14.563Z,13.73
2022-12-05T04:58:46.044Z,11.75
2022-12-05T04:59:17.424Z,16.08
2022-12-05T04:59:48.969Z,14.82
2022-12-05T05:00:20.647Z,15.10
2022-12-05T05:00:56.149Z,13.38
2022-12-05T05:01:27.590Z,15.20
2022-12-05T05:02:02.409Z,13.00
2022-12-05T05:02:40.543Z,12.98
2022-12-05T05:03:16.784Z,14.38
2022-12-05T05:03:51.200Z,12.23
2022-12-05T05:04:42.825Z,13.55
2022-12-05T05:05:16.444Z,15.10
2022-12-05T05:05:49.386Z,13.52
2022-12-05T05:06:20.959Z,13.85
2022-12-05T05:06:52.350Z,12.05
2022-12-05T05:07:23.954Z,12.25
2022-12-05T05:07:55.524Z,12.80
2022-12-05T05:08:27.892Z,13.18
2022-12-05T05:08:59.327Z,15.38
2022-12-05T05:09:30.717Z,12.90
2022-12-05T05:10:02.074Z,14.13
2022-12-05T05:10:37.455Z,13.05
2022-12-05T05:11:16.270Z,14.80
2022-12-05T05:11:48.126Z,12.70
2022-12-05T05:12:19.567Z,14.53
2022-12-05T05:12:51.066Z,14.48
2022-12-05T05:13:22.501Z,14.63
2022-12-05T05:13:54.502Z,14.05
2022-12-05T05:14:25.888Z,13.80
2022-12-05T05:14:57.271Z,11.25
2022-12-05T05:15:28.779Z,14.15
2022-12-05T05:16:00.197Z,13.37
2022-12-05T05:16:35.744Z,12.38
2022-12-05T05:17:07.168Z,13.93
2022-12-05T05:17:38.512Z,12.98
2022-12-05T05:18:10.150Z,14.48
2022-12-05T05:18:41.536Z,12.93
2022-12-05T05:19:12.931Z,12.55
2022-12-05T05:19:44.354Z,14.18
2022-12-05T05:20:19.764Z,12.30
2022-12-05T05:20:51.542Z,11.95
2022-12-05T05:21:27.575Z,13.48
2022-12-05T05:21:58.971Z,12.98
2022-12-05T05:22:30.350Z,12.85
2022-12-05T05:23:01.736Z,15.43
2022-12-05T05:23:33.170Z,13.38
2022-12-05T05:24:05.377Z,13.48
2022-12-05T05:24:36.761Z,12.13
2022-12-05T05:25:08.275Z,13.65
2022-12-05T05:25:39.673Z,11.88
2022-12-05T05:26:11.074Z,11.55
2022-12-05T05:26:43.543Z,12.13
2022-12-05T05:27:14.973Z,10.45
2022-12-05T05:27:53.689Z,11.43
2022-12-05T05:28:25.070Z,12.98
2022-12-05T05:28:57.224Z,11.50
2022-12-05T05:29:28.715Z,11.77
2022-12-05T05:30:00.210Z,11.90
2022-12-05T05:30:31.894Z,12.00
2022-12-05T05:31:04.154Z,12.40
2022-12-05T05:31:38.683Z,13.88
2022-12-05T05:32:10.202Z,11.25
2022-12-05T05:32:41.571Z,11.55
2022-12-05T05:33:12.977Z,11.57
2022-12-05T05:33:44.608Z,12.80
2022-12-05T05:34:19.082Z,10.73
2022-12-05T05:34:50.470Z,12.52
2022-12-05T05:35:21.915Z,11.38
2022-12-05T05:36:12.751Z,11.88
2022-12-05T05:36:50.933Z,13.23
2022-12-05T05:37:22.310Z,14.25
2022-12-05T05:37:54.741Z,12.47
2022-12-05T05:38:26.181Z,11.07
2022-12-05T05:38:58.721Z,13.20
2022-12-05T05:39:30.147Z,11.68
2022-12-05T05:40:06.276Z,12.88
2022-12-05T05:40:40.820Z,11.18
2022-12-05T05:41:13.281Z,13.17
2022-12-05T05:41:44.667Z,13.32
2022-12-05T05:42:16.064Z,14.75
2022-12-05T05:42:48.266Z,12.85
2022-12-05T05:43:19.750Z,12.20
2022-12-05T05:43:51.512Z,11.10
2022-12-05T05:44:23.050Z,11.25
2022-12-05T05:44:54.468Z,12.50
2022-12-05T05:45:25.931Z,11.40
2022-12-05T05:45:57.606Z,10.57
2022-12-05T05:46:30.574Z,11.43
2022-12-05T05:47:02.077Z,12.60
2022-12-05T05:47:33.666Z,13.30
2022-12-05T05:48:05.143Z,12.05
2022-12-05T05:48:36.640Z,11.05
2022-12-05T05:49:08.014Z,11.70
2022-12-05T05:49:39.412Z,13.38
2022-12-05T05:50:15.006Z,12.27
2022-12-05T05:50:49.499Z,13.65
2022-12-05T05:51:21.347Z,12.80
2022-12-05T05:51:52.723Z,13.00
2022-12-05T05:52:24.173Z,10.10
2022-12-05T05:52:55.656Z,13.52
2022-12-05T05:53:27.147Z,13.35
2022-12-05T05:53:59.145Z,11.88
2022-12-05T05:54:30.603Z,12.98
2022-12-05T05:55:02.380Z,13.82
2022-12-05T05:55:33.926Z,11.82
2022-12-05T05:56:06.661Z,13.02
2022-12-05T05:56:39.561Z,11.73
2022-12-05T05:57:10.943Z,11.85
2022-12-05T05:57:42.601Z,12.63
2022-12-05T05:58:13.928Z,11.80
2022-12-05T05:58:45.692Z,12.18
2022-12-05T05:59:17.153Z,13.25
2022-12-05T05:59:48.498Z,11.65
2022-12-05T06:00:20.190Z,11.82
2022-12-05T06:00:51.732Z,14.50
2022-12-05T06:01:23.347Z,11.00
2022-12-05T06:01:54.742Z,10.68
2022-12-05T06:02:26.185Z,12.65
2022-12-05T06:02:57.773Z,10.85
2022-12-05T06:03:29.301Z,11.20
2022-12-05T06:04:00.888Z,12.05
2022-12-05T06:04:34.387Z,12.38
2022-12-05T06:05:05.981Z,10.98
2022-12-05T06:05:37.420Z,11.07
2022-12-05T06:06:10.563Z,11.98
2022-12-05T06:06:41.933Z,12.30
2022-12-05T06:07:13.373Z,10.73
2022-12-05T06:07:44.882Z,11.23
2022-12-05T06:08:16.359Z,12.60
2022-12-05T06:08:47.811Z,11.98
2022-12-05T06:09:19.224Z,11.65
2022-12-05T06:09:50.652Z,11.43
2022-12-05T06:10:22.061Z,11.52
2022-12-05T06:10:53.479Z,13.13
2022-12-05T06:11:26.962Z,13.15
2022-12-05T06:11:58.668Z,13.03
2022-12-05T06:12:30.109Z,12.43
2022-12-05T06:13:01.491Z,11.65
2022-12-05T06:13:32.932Z,12.55
2022-12-05T06:14:04.259Z,11.30
2022-12-05T06:14:35.645Z,12.90
2022-12-05T06:15:07.439Z,12.13
2022-12-05T06:15:38.826Z,12.75
2022-12-05T06:16:12.181Z,12.75
2022-12-05T06:16:43.648Z,13.55
2022-12-05T06:17:15.490Z,12.98
2022-12-05T06:17:46.929Z,12.02
2022-12-05T06:18:18.344Z,10.23
2022-12-05T06:18:49.901Z,12.05
2022-12-05T06:19:21.342Z,13.27
2022-12-05T06:19:52.678Z,13.98
2022-12-05T06:20:24.129Z,12.38
2022-12-05T06:20:56.887Z,11.60
2022-12-05T06:21:28.323Z,11.85
2022-12-05T06:21:59.758Z,11.93
2022-12-05T06:22:31.200Z,11.50
2022-12-05T06:23:02.628Z,11.27
2022-12-05T06:23:35.100Z,11.50
2022-12-05T06:24:06.656Z,12.27
2022-12-05T06:24:38.135Z,11.00
2022-12-05T06:25:09.614Z,12.73
2022-12-05T06:25:46.783Z,13.65
2022-12-05T06:26:19.615Z,12.07
2022-12-05T06:26:51.094Z,11.03
2022-12-05T06:27:22.599Z,11.80
2022-12-05T06:27:53.959Z,11.43
2022-12-05T06:28:25.653Z,12.60
2022-12-05T06:28:57.064Z,12.38
2022-12-05T06:29:33.516Z,13.15
2022-12-05T06:30:05.666Z,13.25
2022-12-05T06:30:38.473Z,12.55
2022-12-05T06:31:10.933Z,13.70
2022-12-05T06:31:42.486Z,14.07
2022-12-05T06:32:13.976Z,11.90
2022-12-05T06:32:45.405Z,12.30
2022-12-05T06:33:17.145Z,11.45
2022-12-05T06:33:48.892Z,14.05
2022-12-05T06:34:20.280Z,13.48
2022-12-05T06:34:51.670Z,13.38
2022-12-05T06:35:23.135Z,13.23
2022-12-05T06:36:07.913Z,12.77
2022-12-05T06:36:39.327Z,11.63
2022-12-05T06:37:10.790Z,13.30
2022-12-05T06:37:45.379Z,19.75
2022-12-05T06:38:16.786Z,13.82
2022-12-05T06:38:48.625Z,13.10
2022-12-05T06:39:20.008Z,13.00
2022-12-05T06:39:51.559Z,14.55
2022-12-05T06:40:23.037Z,12.90
2022-12-05T06:40:54.456Z,11.73
2022-12-05T06:41:26.731Z,14.95
2022-12-05T06:41:58.191Z,14.15
2022-12-05T06:42:30.987Z,12.10
2022-12-05T06:43:02.371Z,14.10
2022-12-05T06:43:34.016Z,12.25
2022-12-05T06:44:05.405Z,12.40
2022-12-05T06:44:36.844Z,12.33
2022-12-05T06:45:08.486Z,17.10
2022-12-05T06:45:40.260Z,13.23
2022-12-05T06:46:12.797Z,12.88
2022-12-05T06:46:44.365Z,11.88
2022-12-05T06:47:15.764Z,14.48
2022-12-05T06:47:47.155Z,13.97
2022-12-05T06:48:18.590Z,14.23
2022-12-05T06:48:52.088Z,12.70
2022-12-05T06:49:29.912Z,13.05
2022-12-05T06:50:03.143Z,13.73
2022-12-05T06:50:34.577Z,11.18
2022-12-05T06:51:08.920Z,12.40
2022-12-05T06:51:40.422Z,11.85
2022-12-05T06:52:11.753Z,12.52
2022-12-05T06:52:43.214Z,12.32
2022-12-05T06:53:14.625Z,11.50
2022-12-05T06:53:46.006Z,11.88
2022-12-05T06:54:17.380Z,14.82
2022-12-05T06:54:48.730Z,14.18
2022-12-05T06:55:20.094Z,11.77
2022-12-05T06:56:01.996Z,13.13
2022-12-05T06:56:33.397Z,12.20
2022-12-05T06:57:04.830Z,13.85
2022-12-05T06:57:36.472Z,14.02
2022-12-05T06:58:07.804Z,10.93
2022-12-05T06:58:39.907Z,12.70
2022-12-05T06:59:11.334Z,12.45
2022-12-05T06:59:42.737Z,13.82
2022-12-05T07:00:14.477Z,13.85
2022-12-05T07:00:45.897Z,13.65
2022-12-05T07:01:18.743Z,13.55
2022-12-05T07:01:50.328Z,12.02
2022-12-05T07:02:21.849Z,11.77
2022-12-05T07:02:53.763Z,10.52
2022-12-05T07:03:25.161Z,12.07
2022-12-05T07:03:56.731Z,14.75
2022-12-05T07:04:28.093Z,12.50
2022-12-05T07:04:59.423Z,13.10
2022-12-05T07:05:30.809Z,13.73
2022-12-05T07:06:03.472Z,12.35
2022-12-05T07:06:35.318Z,10.93
2022-12-05T07:07:06.757Z,11.35
2022-12-05T07:07:38.404Z,11.95
2022-12-05T07:08:09.924Z,10.73
2022-12-05T07:08:41.439Z,12.10
2022-12-05T07:09:12.904Z,12.15
2022-12-05T07:09:44.288Z,12.50
2022-12-05T07:10:15.730Z,11.68
2022-12-05T07:10:50.958Z,10.88
2022-12-05T07:11:22.356Z,11.65
2022-12-05T07:11:53.677Z,11.07
2022-12-05T07:12:25.016Z,11.43
2022-12-05T07:12:56.410Z,11.93
2022-12-05T07:13:27.784Z,13.57
2022-12-05T07:13:59.183Z,12.50
2022-12-05T07:14:47.083Z,13.43
2022-12-05T07:15:19.807Z,11.85
2022-12-05T07:15:51.441Z,11.83
2022-12-05T07:16:23.118Z,11.13
2022-12-05T07:16:54.657Z,12.18
2022-12-05T07:17:26.062Z,10.60
2022-12-05T07:17:57.449Z,11.27
2022-12-05T07:18:29.055Z,12.73